Time,TemperatureF,DewpointF,PressureIn,WindDirection,WindDirectionDegrees,WindSpeedMPH,WindSpeedGustMPH,Humidity,HourlyPrecipIn,Conditions,Clouds,dailyrainin,SolarRadiationWatts/m^2,SoftwareType,DateUTC
2013-01-24 00:01:00,19.5,8.3,30.08,North,0,0.0,2.0,61,0.00,,,0.00,0,WeatherCatV1.11B39,2013-01-24 05:01:00,
2013-01-24 00:03:00,19.5,8.3,30.08,North,0,0.0,0.0,61,0.00,,,0.00,0,WeatherCatV1.11B39,2013-01-24 05:03:00,
2013-01-24 00:08:00,19.5,8.6,30.08,North,0,0.0,3.0,62,0.00,,,0.00,0,WeatherCatV1.11B39,2013-01-24 05:08:00,
2013-01-24 00:13:00,19.5,9.0,30.08,NNE,21,0.0,3.0,63,0.00,,,0.00,0,WeatherCatV1.11B39,2013-01-24 05:13:00,
2013-01-24 00:18:00,19.4,9.2,30.07,NNE,24,0.0,0.0,64,0.00,,,0.00,0,WeatherCatV1.11B39,2013-01-24 05:18:00,
2013-01-24 00:23:00,19.5,9.7,30.07,NNE,24,0.0,0.0,65,0.00,,,0.00,0,WeatherCatV1.11B39,2013-01-24 05:23:00,
2013-01-24 00:28:00,19.5,9.7,30.07,NNE,27,2.0,2.0,65,0.00,,,0.00,0,WeatherCatV1.11B39,2013-01-24 05:28:00,
2013-01-24 00:33:00,19.1,10.0,30.06,ENE,66,1.0,4.0,67,0.00,,,0.00,0,WeatherCatV1.11B39,2013-01-24 05:33:00,
2013-01-24 00:38:00,18.8,10.0,30.06,ENE,71,5.0,6.0,68,0.00,,,0.00,0,WeatherCatV1.11B39,2013-01-24 05:38:00,
2013-01-24 00:43:00,18.4,10.0,30.06,ENE,69,3.0,7.0,69,0.00,,,0.00,0,WeatherCatV1.11B39,2013-01-24 05:43:00,
2013-01-24 00:48:00,18.3,10.5,30.05,NE,56,3.0,6.0,71,0.00,,,0.00,0,WeatherCatV1.11B39,2013-01-24 05:48:00,
2013-01-24 00:53:00,18.1,10.9,30.05,ENE,76,4.0,6.0,73,0.00,,,0.00,0,WeatherCatV1.11B39,2013-01-24 05:53:00,
2013-01-24 00:58:00,18.1,11.2,30.05,ENE,73,2.0,3.0,74,0.00,,,0.00,0,WeatherCatV1.11B39,2013-01-24 05:58:00,
2013-01-24 01:03:00,18.1,11.8,30.06,ENE,75,2.0,5.0,76,0.00,,,0.00,0,WeatherCatV1.11B39,2013-01-24 06:03:00,
2013-01-24 01:08:00,18.0,11.7,30.06,ENE,68,2.0,5.0,76,0.00,,,0.00,0,WeatherCatV1.11B39,2013-01-24 06:08:00,
2013-01-24 01:13:00,17.8,12.4,30.06,ENE,73,2.0,5.0,79,0.00,,,0.00,0,WeatherCatV1.11B39,2013-01-24 06:13:00,
2013-01-24 01:18:00,17.8,12.7,30.05,East,83,2.0,4.0,80,0.00,,,0.00,0,WeatherCatV1.11B39,2013-01-24 06:18:00,
2013-01-24 01:23:00,17.8,12.7,30.05,ENE,65,1.0,3.0,80,0.00,,,0.00,0,WeatherCatV1.11B39,2013-01-24 06:23:00,
2013-01-24 01:28:00,17.8,12.7,30.05,ENE,66,2.0,3.0,80,0.00,,,0.00,0,WeatherCatV1.11B39,2013-01-24 06:28:00,
2013-01-24 01:33:00,17.7,12.6,30.05,NE,56,0.0,5.0,80,0.00,,,0.00,0,WeatherCatV1.11B39,2013-01-24 06:33:00,
2013-01-24 01:38:00,17.7,13.2,30.05,ENE,69,0.0,2.0,82,0.00,,,0.00,0,WeatherCatV1.11B39,2013-01-24 06:38:00,
2013-01-24 01:43:00,17.5,13.0,30.05,ENE,69,0.0,0.0,82,0.00,,,0.00,0,WeatherCatV1.11B39,2013-01-24 06:43:00,
2013-01-24 01:48:00,17.3,12.8,30.05,ENE,62,0.0,6.0,82,0.00,,,0.00,0,WeatherCatV1.11B39,2013-01-24 06:48:00,
2013-01-24 01:53:00,17.3,13.0,30.05,ENE,62,0.0,3.0,83,0.00,,,0.00,0,WeatherCatV1.11B39,2013-01-24 06:53:00,
2013-01-24 01:58:00,17.3,13.0,30.05,ENE,65,5.0,5.0,83,0.00,,,0.00,0,WeatherCatV1.11B39,2013-01-24 06:58:00,
2013-01-24 02:03:00,17.2,12.9,30.05,ENE,73,2.0,5.0,83,0.00,,,0.00,0,WeatherCatV1.11B39,2013-01-24 07:03:00,
2013-01-24 02:08:00,17.2,12.9,30.05,ENE,73,0.0,2.0,83,0.00,,,0.00,0,WeatherCatV1.11B39,2013-01-24 07:08:00,
2013-01-24 02:13:00,17.3,13.0,30.05,ENE,73,0.0,0.0,83,0.00,,,0.00,0,WeatherCatV1.11B39,2013-01-24 07:13:00,
2013-01-24 02:18:00,17.3,13.0,30.04,ENE,73,0.0,3.0,83,0.00,,,0.00,0,WeatherCatV1.11B39,2013-01-24 07:18:00,
2013-01-24 02:23:00,17.3,13.0,30.04,NE,42,0.0,0.0,83,0.00,,,0.00,0,WeatherCatV1.11B39,2013-01-24 07:23:00,
2013-01-24 02:28:00,17.3,13.0,30.04,NE,42,0.0,0.0,83,0.00,,,0.00,0,WeatherCatV1.11B39,2013-01-24 07:28:00,
2013-01-24 02:33:00,17.5,13.2,30.05,NE,42,0.0,0.0,83,0.00,,,0.00,0,WeatherCatV1.11B39,2013-01-24 07:33:00,
2013-01-24 02:38:00,17.7,13.4,30.05,NE,42,0.0,0.0,83,0.00,,,0.00,0,WeatherCatV1.11B39,2013-01-24 07:38:00,
2013-01-24 02:43:00,17.5,13.2,30.05,NNE,25,2.0,2.0,83,0.00,,,0.00,0,WeatherCatV1.11B39,2013-01-24 07:43:00,
2013-01-24 02:48:00,17.5,13.2,30.05,NNE,14,0.0,3.0,83,0.00,,,0.00,0,WeatherCatV1.11B39,2013-01-24 07:48:00,
2013-01-24 02:53:00,17.5,13.2,30.05,NNE,14,0.0,2.0,83,0.00,,,0.00,0,WeatherCatV1.11B39,2013-01-24 07:53:00,
2013-01-24 02:58:00,17.3,13.0,30.05,North,4,2.0,5.0,83,0.00,,,0.00,0,WeatherCatV1.11B39,2013-01-24 07:58:00,
2013-01-24 03:03:00,17.3,13.3,30.05,NNE,17,0.0,2.0,84,0.00,,,0.00,0,WeatherCatV1.11B39,2013-01-24 08:03:00,
2013-01-24 03:08:00,17.3,13.3,30.05,North,359,0.0,3.0,84,0.00,,,0.00,0,WeatherCatV1.11B39,2013-01-24 08:08:00,
2013-01-24 03:13:00,17.0,12.7,30.05,NNW,337,2.0,7.0,83,0.00,,,0.00,0,WeatherCatV1.11B39,2013-01-24 08:13:00,
2013-01-24 03:18:00,16.9,12.9,30.05,NNW,342,3.0,6.0,84,0.00,,,0.00,0,WeatherCatV1.11B39,2013-01-24 08:18:00,
2013-01-24 03:23:00,16.7,13.0,30.05,NNW,346,5.0,7.0,85,0.00,,,0.00,0,WeatherCatV1.11B39,2013-01-24 08:23:00,
2013-01-24 03:28:00,16.5,12.5,30.05,North,359,3.0,7.0,84,0.00,,,0.00,0,WeatherCatV1.11B39,2013-01-24 08:28:00,
2013-01-24 03:33:00,16.5,12.5,30.05,North,0,1.0,6.0,84,0.00,,,0.00,0,WeatherCatV1.11B39,2013-01-24 08:33:00,
2013-01-24 03:38:00,16.4,12.7,30.05,North,10,2.0,6.0,85,0.00,,,0.00,0,WeatherCatV1.11B39,2013-01-24 08:38:00,
2013-01-24 03:43:00,16.4,12.4,30.05,North,353,5.0,7.0,84,0.00,,,0.00,0,WeatherCatV1.11B39,2013-01-24 08:43:00,
2013-01-24 03:48:00,16.4,12.4,30.05,North,350,2.0,9.0,84,0.00,,,0.00,0,WeatherCatV1.11B39,2013-01-24 08:48:00,
2013-01-24 03:53:00,16.5,12.5,30.05,NNW,343,3.0,8.0,84,0.00,,,0.00,0,WeatherCatV1.11B39,2013-01-24 08:53:00,
2013-01-24 03:58:00,16.5,12.8,30.05,North,0,0.0,6.0,85,0.00,,,0.00,0,WeatherCatV1.11B39,2013-01-24 08:58:00,
2013-01-24 04:03:00,16.5,13.1,30.05,North,0,1.0,6.0,86,0.00,,,0.00,0,WeatherCatV1.11B39,2013-01-24 09:03:00,
2013-01-24 04:08:00,16.5,13.1,30.05,North,0,0.0,5.0,86,0.00,,,0.00,0,WeatherCatV1.11B39,2013-01-24 09:08:00,
2013-01-24 04:13:00,16.7,13.3,30.05,North,3,4.0,7.0,86,0.00,,,0.00,0,WeatherCatV1.11B39,2013-01-24 09:13:00,
2013-01-24 04:18:00,16.7,13.5,30.05,North,359,0.0,2.0,87,0.00,,,0.00,0,WeatherCatV1.11B39,2013-01-24 09:18:00,
2013-01-24 04:23:00,16.7,13.5,30.05,NNW,342,5.0,6.0,87,0.00,,,0.00,0,WeatherCatV1.11B39,2013-01-24 09:23:00,
2013-01-24 04:28:00,16.9,13.7,30.05,North,10,0.0,3.0,87,0.00,,,0.00,0,WeatherCatV1.11B39,2013-01-24 09:28:00,
2013-01-24 04:33:00,16.9,13.7,30.06,North,0,0.0,1.0,87,0.00,,,0.00,0,WeatherCatV1.11B39,2013-01-24 09:33:00,
2013-01-24 04:38:00,16.9,13.7,30.06,North,353,1.0,2.0,87,0.00,,,0.00,0,WeatherCatV1.11B39,2013-01-24 09:38:00,
2013-01-24 04:43:00,16.9,13.5,30.06,North,359,2.0,6.0,86,0.00,,,0.00,0,WeatherCatV1.11B39,2013-01-24 09:43:00,
2013-01-24 04:48:00,16.7,12.7,30.06,NNE,14,2.0,7.0,84,0.00,,,0.00,0,WeatherCatV1.11B39,2013-01-24 09:48:00,
2013-01-24 04:53:00,16.4,12.4,30.06,North,349,6.0,10.0,84,0.00,,,0.00,0,WeatherCatV1.11B39,2013-01-24 09:53:00,
2013-01-24 04:58:00,16.2,12.5,30.06,NNE,18,1.0,9.0,85,0.00,,,0.00,0,WeatherCatV1.11B39,2013-01-24 09:58:00,
2013-01-24 05:03:00,16.2,12.2,30.08,NNE,31,5.0,8.0,84,0.00,,,0.00,0,WeatherCatV1.11B39,2013-01-24 10:03:00,
2013-01-24 05:08:00,16.1,11.9,30.08,NNE,13,6.0,6.0,83,0.00,,,0.00,0,WeatherCatV1.11B39,2013-01-24 10:08:00,
2013-01-24 05:13:00,15.9,11.7,30.08,North,356,5.0,8.0,83,0.00,,,0.00,0,WeatherCatV1.11B39,2013-01-24 10:13:00,
2013-01-24 05:18:00,15.9,11.7,30.08,NNW,333,9.0,12.0,83,0.00,,,0.00,0,WeatherCatV1.11B39,2013-01-24 10:18:00,
2013-01-24 05:23:00,15.7,11.5,30.08,North,4,4.0,10.0,83,0.00,,,0.00,0,WeatherCatV1.11B39,2013-01-24 10:23:00,
2013-01-24 05:28:00,15.6,11.6,30.08,North,353,5.0,8.0,84,0.00,,,0.00,0,WeatherCatV1.11B39,2013-01-24 10:28:00,
2013-01-24 05:33:00,15.6,11.4,30.09,NNW,347,3.0,6.0,83,0.00,,,0.00,0,WeatherCatV1.11B39,2013-01-24 10:33:00,
2013-01-24 05:38:00,15.4,10.9,30.09,North,0,6.0,12.0,82,0.00,,,0.00,0,WeatherCatV1.11B39,2013-01-24 10:38:00,
2013-01-24 05:43:00,15.2,10.4,30.09,North,0,1.0,8.0,81,0.00,,,0.00,0,WeatherCatV1.11B39,2013-01-24 10:43:00,
2013-01-24 05:48:00,15.4,10.4,30.10,NNE,21,1.0,6.0,80,0.00,,,0.00,0,WeatherCatV1.11B39,2013-01-24 10:48:00,
2013-01-24 05:53:00,15.4,10.4,30.10,North,350,3.0,8.0,80,0.00,,,0.00,0,WeatherCatV1.11B39,2013-01-24 10:53:00,
2013-01-24 05:58:00,15.4,10.4,30.10,North,359,8.0,12.0,80,0.00,,,0.00,0,WeatherCatV1.11B39,2013-01-24 10:58:00,
2013-01-24 06:03:00,15.4,10.9,30.11,North,359,4.0,7.0,82,0.00,,,0.00,0,WeatherCatV1.11B39,2013-01-24 11:03:00,
2013-01-24 06:08:00,15.4,10.4,30.11,North,3,1.0,7.0,80,0.00,,,0.00,0,WeatherCatV1.11B39,2013-01-24 11:08:00,
2013-01-24 06:13:00,15.4,10.9,30.11,North,352,2.0,8.0,82,0.00,,,0.00,0,WeatherCatV1.11B39,2013-01-24 11:13:00,
2013-01-24 06:18:00,15.6,11.1,30.12,North,353,8.0,8.0,82,0.00,,,0.00,0,WeatherCatV1.11B39,2013-01-24 11:18:00,
2013-01-24 06:23:00,15.6,11.4,30.12,North,1,0.0,3.0,83,0.00,,,0.00,0,WeatherCatV1.11B39,2013-01-24 11:23:00,
2013-01-24 06:28:00,15.6,11.4,30.12,NNE,20,0.0,7.0,83,0.00,,,0.00,0,WeatherCatV1.11B39,2013-01-24 11:28:00,
2013-01-24 06:33:00,15.6,11.4,30.13,NNW,335,7.0,7.0,83,0.00,,,0.00,0,WeatherCatV1.11B39,2013-01-24 11:33:00,
2013-01-24 06:38:00,15.4,10.9,30.13,North,0,2.0,6.0,82,0.00,,,0.00,0,WeatherCatV1.11B39,2013-01-24 11:38:00,
2013-01-24 06:43:00,15.4,10.9,30.13,North,353,1.0,11.0,82,0.00,,,0.00,0,WeatherCatV1.11B39,2013-01-24 11:43:00,
2013-01-24 06:48:00,15.4,11.2,30.14,North,353,3.0,5.0,83,0.00,,,0.00,0,WeatherCatV1.11B39,2013-01-24 11:48:00,
2013-01-24 06:53:00,15.4,10.9,30.14,North,359,4.0,5.0,82,0.00,,,0.00,0,WeatherCatV1.11B39,2013-01-24 11:53:00,
2013-01-24 06:58:00,15.2,10.4,30.14,North,353,0.0,8.0,81,0.00,,,0.00,0,WeatherCatV1.11B39,2013-01-24 11:58:00,
2013-01-24 07:03:00,15.4,10.9,30.15,NNW,346,5.0,6.0,82,0.00,,,0.00,0,WeatherCatV1.11B39,2013-01-24 12:03:00,
2013-01-24 07:08:00,15.4,10.4,30.15,North,11,2.0,7.0,80,0.00,,,0.00,0,WeatherCatV1.11B39,2013-01-24 12:08:00,
2013-01-24 07:13:00,15.4,10.9,30.15,NNW,335,0.0,2.0,82,0.00,,,0.00,0,WeatherCatV1.11B39,2013-01-24 12:13:00,
2013-01-24 07:18:00,15.2,10.4,30.16,NNW,342,0.0,5.0,81,0.00,,,0.00,0,WeatherCatV1.11B39,2013-01-24 12:18:00,
2013-01-24 07:23:00,15.4,10.6,30.16,North,0,3.0,5.0,81,0.00,,,0.00,5,WeatherCatV1.11B39,2013-01-24 12:23:00,
2013-01-24 07:28:00,15.4,10.6,30.16,North,354,2.0,5.0,81,0.00,,,0.00,5,WeatherCatV1.11B39,2013-01-24 12:28:00,
2013-01-24 07:33:00,15.4,10.9,30.17,North,353,6.0,6.0,82,0.00,,,0.00,11,WeatherCatV1.11B39,2013-01-24 12:33:00,
2013-01-24 07:38:00,15.2,10.4,30.17,North,359,3.0,5.0,81,0.00,,,0.00,14,WeatherCatV1.11B39,2013-01-24 12:38:00,
2013-01-24 07:43:00,15.2,10.4,30.17,NNW,333,0.0,2.0,81,0.00,,,0.00,18,WeatherCatV1.11B39,2013-01-24 12:43:00,
2013-01-24 07:48:00,15.4,10.6,30.18,North,353,0.0,2.0,81,0.00,,,0.00,21,WeatherCatV1.11B39,2013-01-24 12:48:00,
2013-01-24 07:53:00,15.4,10.6,30.18,NNW,347,3.0,4.0,81,0.00,,,0.00,23,WeatherCatV1.11B39,2013-01-24 12:53:00,
2013-01-24 07:58:00,15.4,10.6,30.18,NNW,346,0.0,2.0,81,0.00,,,0.00,33,WeatherCatV1.11B39,2013-01-24 12:58:00,
2013-01-24 08:03:00,15.4,10.6,30.19,NNW,346,0.0,0.0,81,0.00,,,0.00,37,WeatherCatV1.11B39,2013-01-24 13:03:00,
2013-01-24 08:08:00,15.4,10.6,30.19,NNW,346,0.0,0.0,81,0.00,,,0.00,48,WeatherCatV1.11B39,2013-01-24 13:08:00,
2013-01-24 08:13:00,15.4,10.6,30.19,NNW,346,0.0,0.0,81,0.00,,,0.00,48,WeatherCatV1.11B39,2013-01-24 13:13:00,
2013-01-24 08:18:00,15.6,10.6,30.20,NNW,346,0.0,0.0,80,0.00,,,0.00,69,WeatherCatV1.11B39,2013-01-24 13:18:00,
2013-01-24 08:23:00,15.7,10.6,30.20,NNW,347,0.0,0.0,80,0.00,,,0.00,114,WeatherCatV1.11B39,2013-01-24 13:23:00,
2013-01-24 08:28:00,16.4,11.6,30.20,NNW,346,0.0,0.0,81,0.00,,,0.00,58,WeatherCatV1.11B39,2013-01-24 13:28:00,
2013-01-24 08:33:00,16.4,11.0,30.21,NNW,347,0.0,0.0,79,0.00,,,0.00,58,WeatherCatV1.11B39,2013-01-24 13:33:00,
2013-01-24 08:38:00,16.7,11.1,30.21,NNW,347,0.0,0.0,78,0.00,,,0.00,137,WeatherCatV1.11B39,2013-01-24 13:38:00,
2013-01-24 08:43:00,17.0,11.1,30.21,NNW,347,0.0,0.0,77,0.00,,,0.00,167,WeatherCatV1.11B39,2013-01-24 13:43:00,
2013-01-24 08:48:00,17.0,10.8,30.22,NNW,347,0.0,0.0,76,0.00,,,0.00,171,WeatherCatV1.11B39,2013-01-24 13:48:00,
2013-01-24 08:53:00,17.2,10.7,30.22,NNW,347,0.0,0.0,75,0.00,,,0.00,181,WeatherCatV1.11B39,2013-01-24 13:53:00,
2013-01-24 08:58:00,17.3,10.5,30.22,NNW,347,0.0,0.0,74,0.00,,,0.00,206,WeatherCatV1.11B39,2013-01-24 13:58:00,
2013-01-24 09:03:00,18.3,11.4,30.23,NNW,347,0.0,0.0,74,0.00,,,0.00,213,WeatherCatV1.11B39,2013-01-24 14:03:00,
2013-01-24 09:08:00,18.3,10.8,30.23,NNW,347,0.0,0.0,72,0.00,,,0.00,225,WeatherCatV1.11B39,2013-01-24 14:08:00,
2013-01-24 09:13:00,18.4,10.6,30.23,NNW,347,0.0,0.0,71,0.00,,,0.00,243,WeatherCatV1.11B39,2013-01-24 14:13:00,
2013-01-24 09:18:00,18.9,11.1,30.24,NNW,347,0.0,0.0,71,0.00,,,0.00,255,WeatherCatV1.11B39,2013-01-24 14:18:00,
2013-01-24 09:23:00,20.2,13.3,30.24,NNW,347,0.0,0.0,74,0.00,,,0.00,274,WeatherCatV1.11B39,2013-01-24 14:23:00,
2013-01-24 09:28:00,20.3,13.1,30.24,NNW,347,0.0,0.0,73,0.00,,,0.00,326,WeatherCatV1.11B39,2013-01-24 14:28:00,
2013-01-24 09:33:00,21.6,15.5,30.25,NNW,347,0.0,0.0,77,0.00,,,0.00,362,WeatherCatV1.11B39,2013-01-24 14:33:00,
2013-01-24 09:38:00,22.2,14.3,30.25,SSW,213,0.0,0.0,71,0.00,,,0.00,371,WeatherCatV1.11B39,2013-01-24 14:38:00,
2013-01-24 09:43:00,21.8,13.5,30.25,SSE,148,1.0,6.0,70,0.00,,,0.00,371,WeatherCatV1.11B39,2013-01-24 14:43:00,
2013-01-24 09:48:00,21.6,12.7,30.25,SSE,148,1.0,2.0,68,0.00,,,0.00,169,WeatherCatV1.11B39,2013-01-24 14:48:00,
2013-01-24 09:53:00,21.9,11.3,30.25,SSE,165,0.0,1.0,63,0.00,,,0.00,377,WeatherCatV1.11B39,2013-01-24 14:53:00,
2013-01-24 09:58:00,21.3,10.0,30.25,SSE,164,0.0,0.0,61,0.00,,,0.00,357,WeatherCatV1.11B39,2013-01-24 14:58:00,
2013-01-24 10:03:00,21.3,10.7,30.26,WNW,302,5.0,6.0,63,0.00,,,0.00,338,WeatherCatV1.11B39,2013-01-24 15:03:00,
2013-01-24 10:08:00,21.1,8.7,30.26,NW,309,0.0,0.0,58,0.00,,,0.00,370,WeatherCatV1.11B39,2013-01-24 15:08:00,
2013-01-24 10:13:00,20.2,6.7,30.26,WNW,299,2.0,10.0,55,0.00,,,0.00,370,WeatherCatV1.11B39,2013-01-24 15:13:00,
2013-01-24 10:18:00,20.0,6.5,30.26,NW,312,11.0,12.0,55,0.00,,,0.00,380,WeatherCatV1.11B39,2013-01-24 15:18:00,
2013-01-24 10:23:00,20.3,6.3,30.26,West,280,11.0,11.0,54,0.00,,,0.00,387,WeatherCatV1.11B39,2013-01-24 15:23:00,
2013-01-24 10:28:00,20.2,5.8,30.26,WNW,302,2.0,10.0,53,0.00,,,0.00,394,WeatherCatV1.11B39,2013-01-24 15:28:00,
2013-01-24 10:33:00,20.3,5.9,30.26,NW,306,9.0,16.0,53,0.00,,,0.00,399,WeatherCatV1.11B39,2013-01-24 15:33:00,
2013-01-24 10:38:00,20.3,6.3,30.26,West,281,4.0,12.0,54,0.00,,,0.00,410,WeatherCatV1.11B39,2013-01-24 15:38:00,
2013-01-24 10:43:00,20.2,5.8,30.26,NNW,330,7.0,11.0,53,0.00,,,0.00,417,WeatherCatV1.11B39,2013-01-24 15:43:00,
2013-01-24 10:48:00,21.0,7.8,30.28,NNW,342,16.0,16.0,56,0.00,,,0.00,428,WeatherCatV1.11B39,2013-01-24 15:48:00,
2013-01-24 10:53:00,20.6,6.2,30.28,WNW,296,7.0,11.0,53,0.00,,,0.00,431,WeatherCatV1.11B39,2013-01-24 15:53:00,
2013-01-24 10:58:00,20.8,6.4,30.28,WNW,302,3.0,11.0,53,0.00,,,0.00,428,WeatherCatV1.11B39,2013-01-24 15:58:00,
2013-01-24 11:03:00,21.1,7.1,30.28,West,265,3.0,8.0,54,0.00,,,0.00,449,WeatherCatV1.11B39,2013-01-24 16:03:00,
2013-01-24 11:08:00,21.9,8.6,30.28,WSW,247,5.0,6.0,56,0.00,,,0.00,457,WeatherCatV1.11B39,2013-01-24 16:08:00,
2013-01-24 11:13:00,21.8,5.6,30.28,NW,308,12.0,18.0,49,0.00,,,0.00,493,WeatherCatV1.11B39,2013-01-24 16:13:00,
2013-01-24 11:18:00,21.6,5.9,30.28,West,260,11.0,17.0,50,0.00,,,0.00,493,WeatherCatV1.11B39,2013-01-24 16:18:00,
2013-01-24 11:23:00,21.3,6.0,30.28,NNW,340,7.0,14.0,51,0.00,,,0.00,463,WeatherCatV1.11B39,2013-01-24 16:23:00,
2013-01-24 11:28:00,21.8,6.1,30.28,NW,304,5.0,12.0,50,0.00,,,0.00,503,WeatherCatV1.11B39,2013-01-24 16:28:00,
2013-01-24 11:33:00,22.1,7.2,30.29,West,277,7.0,17.0,52,0.00,,,0.00,253,WeatherCatV1.11B39,2013-01-24 16:33:00,
2013-01-24 11:38:00,22.2,6.9,30.29,West,272,2.0,16.0,51,0.00,,,0.00,194,WeatherCatV1.11B39,2013-01-24 16:38:00,
2013-01-24 11:43:00,22.1,7.2,30.29,NW,316,6.0,11.0,52,0.00,,,0.00,160,WeatherCatV1.11B39,2013-01-24 16:43:00,
2013-01-24 11:48:00,22.1,5.9,30.30,NW,319,11.0,12.0,49,0.00,,,0.00,187,WeatherCatV1.11B39,2013-01-24 16:48:00,
2013-01-24 11:53:00,21.9,6.6,30.30,West,280,10.0,16.0,51,0.00,,,0.00,213,WeatherCatV1.11B39,2013-01-24 16:53:00,
2013-01-24 11:58:00,22.5,6.7,30.30,WSW,250,11.0,12.0,50,0.00,,,0.00,428,WeatherCatV1.11B39,2013-01-24 16:58:00,
2013-01-24 12:03:00,22.7,4.1,30.30,NNW,347,6.0,19.0,44,0.00,,,0.00,450,WeatherCatV1.11B39,2013-01-24 17:03:00,
2013-01-24 12:08:00,23.2,4.6,30.30,NW,320,9.0,11.0,44,0.00,,,0.00,514,WeatherCatV1.11B39,2013-01-24 17:08:00,
2013-01-24 12:13:00,23.3,3.6,30.30,WNW,301,10.0,13.0,42,0.00,,,0.00,660,WeatherCatV1.11B39,2013-01-24 17:13:00,
2013-01-24 12:18:00,23.3,4.6,30.31,NNW,347,13.0,16.0,44,0.00,,,0.00,470,WeatherCatV1.11B39,2013-01-24 17:18:00,
2013-01-24 12:23:00,23.0,5.8,30.31,WNW,302,10.0,12.0,47,0.00,,,0.00,176,WeatherCatV1.11B39,2013-01-24 17:23:00,
2013-01-24 12:28:00,22.4,5.7,30.31,NW,325,9.0,19.0,48,0.00,,,0.00,176,WeatherCatV1.11B39,2013-01-24 17:28:00,
2013-01-24 12:33:00,22.2,5.1,30.31,North,356,6.0,10.0,47,0.00,,,0.00,165,WeatherCatV1.11B39,2013-01-24 17:33:00,
2013-01-24 12:38:00,22.5,4.9,30.31,West,278,10.0,19.0,46,0.00,,,0.00,523,WeatherCatV1.11B39,2013-01-24 17:38:00,
2013-01-24 12:43:00,22.7,5.1,30.31,NW,306,3.0,8.0,46,0.00,,,0.00,510,WeatherCatV1.11B39,2013-01-24 17:43:00,
2013-01-24 12:48:00,23.2,3.5,30.31,NNW,336,9.0,19.0,42,0.00,,,0.00,496,WeatherCatV1.11B39,2013-01-24 17:48:00,
2013-01-24 12:53:00,23.2,2.0,30.31,West,281,15.0,20.0,39,0.00,,,0.00,487,WeatherCatV1.11B39,2013-01-24 17:53:00,
2013-01-24 12:58:00,23.2,2.0,30.31,NNW,339,14.0,18.0,39,0.00,,,0.00,491,WeatherCatV1.11B39,2013-01-24 17:58:00,
2013-01-24 13:03:00,23.5,3.3,30.31,WNW,302,10.0,15.0,41,0.00,,,0.00,505,WeatherCatV1.11B39,2013-01-24 18:03:00,
2013-01-24 13:08:00,23.9,3.7,30.31,NW,305,7.0,13.0,41,0.00,,,0.00,503,WeatherCatV1.11B39,2013-01-24 18:08:00,
2013-01-24 13:13:00,23.9,0.3,30.31,NW,323,6.0,19.0,35,0.00,,,0.00,486,WeatherCatV1.11B39,2013-01-24 18:13:00,
2013-01-24 13:19:00,23.3,0.3,30.32,NNW,346,7.0,18.0,36,0.00,,,0.00,477,WeatherCatV1.11B39,2013-01-24 18:19:00,
2013-01-24 13:23:00,23.6,1.2,30.32,West,277,6.0,16.0,37,0.00,,,0.00,466,WeatherCatV1.11B39,2013-01-24 18:23:00,
2013-01-24 13:28:00,23.8,0.2,30.32,WNW,291,6.0,8.0,35,0.00,,,0.00,468,WeatherCatV1.11B39,2013-01-24 18:28:00,
2013-01-24 13:34:00,23.9,-1.0,30.31,NNW,340,10.0,14.0,33,0.00,,,0.00,465,WeatherCatV1.11B39,2013-01-24 18:34:00,
2013-01-24 13:39:00,23.6,-1.2,30.31,NNW,336,20.0,20.0,33,0.00,,,0.00,459,WeatherCatV1.11B39,2013-01-24 18:39:00,
2013-01-24 13:44:00,23.8,0.2,30.31,WNW,296,14.0,17.0,35,0.00,,,0.00,465,WeatherCatV1.11B39,2013-01-24 18:44:00,
2013-01-24 13:49:00,23.9,-1.0,30.32,West,280,16.0,27.0,33,0.00,,,0.00,480,WeatherCatV1.11B39,2013-01-24 18:49:00,
2013-01-24 13:54:00,23.8,-2.4,30.32,NW,313,13.0,21.0,31,0.00,,,0.00,457,WeatherCatV1.11B39,2013-01-24 18:54:00,
2013-01-24 13:59:00,23.9,-3.0,30.32,NW,308,8.0,14.0,30,0.00,,,0.00,443,WeatherCatV1.11B39,2013-01-24 18:59:00,
2013-01-24 14:04:00,24.7,-0.3,30.32,NW,313,6.0,11.0,33,0.00,,,0.00,424,WeatherCatV1.11B39,2013-01-24 19:04:00,
2013-01-24 14:09:00,24.4,-3.2,30.32,WNW,296,6.0,16.0,29,0.00,,,0.00,426,WeatherCatV1.11B39,2013-01-24 19:09:00,
2013-01-24 14:14:00,23.9,-3.7,30.32,NW,322,13.0,14.0,29,0.00,,,0.00,406,WeatherCatV1.11B39,2013-01-24 19:14:00,
2013-01-24 14:19:00,24.2,-2.7,30.31,West,267,2.0,12.0,30,0.00,,,0.00,426,WeatherCatV1.11B39,2013-01-24 19:19:00,
2013-01-24 14:24:00,24.4,-3.2,30.31,WNW,291,6.0,13.0,29,0.00,,,0.00,422,WeatherCatV1.11B39,2013-01-24 19:24:00,
2013-01-24 14:29:00,24.2,-3.4,30.31,WSW,258,13.0,17.0,29,0.00,,,0.00,408,WeatherCatV1.11B39,2013-01-24 19:29:00,
2013-01-24 14:34:00,24.5,-4.6,30.32,NW,320,17.0,18.0,27,0.00,,,0.00,387,WeatherCatV1.11B39,2013-01-24 19:34:00,
2013-01-24 14:39:00,24.7,-1.6,30.32,West,281,3.0,16.0,31,0.00,,,0.00,355,WeatherCatV1.11B39,2013-01-24 19:39:00,
2013-01-24 14:44:00,24.8,-3.6,30.32,NW,322,8.0,19.0,28,0.00,,,0.00,364,WeatherCatV1.11B39,2013-01-24 19:44:00,
2013-01-24 14:49:00,24.8,-2.2,30.33,WNW,298,11.0,14.0,30,0.00,,,0.00,333,WeatherCatV1.11B39,2013-01-24 19:49:00,
2013-01-24 14:54:00,24.7,-2.3,30.33,NW,312,12.0,17.0,30,0.00,,,0.00,310,WeatherCatV1.11B39,2013-01-24 19:54:00,
2013-01-24 14:59:00,24.8,-4.4,30.33,NNW,346,13.0,14.0,27,0.00,,,0.00,345,WeatherCatV1.11B39,2013-01-24 19:59:00,
2013-01-24 15:04:00,25.0,-2.0,30.33,NNW,342,1.0,16.0,30,0.00,,,0.00,326,WeatherCatV1.11B39,2013-01-24 20:04:00,
2013-01-24 15:09:00,25.1,-2.6,30.33,WNW,291,16.0,18.0,29,0.00,,,0.00,313,WeatherCatV1.11B39,2013-01-24 20:09:00,
2013-01-24 15:14:00,25.3,-2.5,30.33,North,357,6.0,12.0,29,0.00,,,0.00,287,WeatherCatV1.11B39,2013-01-24 20:14:00,
2013-01-24 15:19:00,25.3,-2.5,30.34,WNW,302,21.0,21.0,29,0.00,,,0.00,296,WeatherCatV1.11B39,2013-01-24 20:19:00,
2013-01-24 15:24:00,25.0,-3.5,30.34,NNW,342,12.0,19.0,28,0.00,,,0.00,227,WeatherCatV1.11B39,2013-01-24 20:24:00,
2013-01-24 15:29:00,25.1,-2.6,30.34,WNW,301,12.0,16.0,29,0.00,,,0.00,164,WeatherCatV1.11B39,2013-01-24 20:29:00,
2013-01-24 15:34:00,24.8,-3.6,30.35,NNW,346,6.0,16.0,28,0.00,,,0.00,165,WeatherCatV1.11B39,2013-01-24 20:34:00,
2013-01-24 15:39:00,25.0,-2.7,30.35,NNW,346,19.0,21.0,29,0.00,,,0.00,238,WeatherCatV1.11B39,2013-01-24 20:39:00,
2013-01-24 15:44:00,25.1,-1.9,30.35,NW,311,6.0,19.0,30,0.00,,,0.00,245,WeatherCatV1.11B39,2013-01-24 20:44:00,
2013-01-24 15:49:00,25.0,-2.7,30.36,NNW,344,12.0,20.0,29,0.00,,,0.00,253,WeatherCatV1.11B39,2013-01-24 20:49:00,
2013-01-24 15:54:00,25.4,-1.7,30.36,WNW,285,3.0,15.0,30,0.00,,,0.00,239,WeatherCatV1.11B39,2013-01-24 20:54:00,
2013-01-24 15:59:00,25.4,-1.7,30.36,NNW,337,6.0,12.0,30,0.00,,,0.00,267,WeatherCatV1.11B39,2013-01-24 20:59:00,
2013-01-24 16:04:00,25.4,-1.7,30.36,West,261,3.0,16.0,30,0.00,,,0.00,90,WeatherCatV1.11B39,2013-01-24 21:04:00,
2013-01-24 16:09:00,24.7,-1.6,30.36,WNW,287,7.0,17.0,31,0.00,,,0.00,127,WeatherCatV1.11B39,2013-01-24 21:09:00,
2013-01-24 16:14:00,24.5,-2.4,30.36,West,277,12.0,19.0,30,0.00,,,0.00,76,WeatherCatV1.11B39,2013-01-24 21:14:00,
2013-01-24 16:19:00,24.5,-2.4,30.37,WNW,294,8.0,10.0,30,0.00,,,0.00,63,WeatherCatV1.11B39,2013-01-24 21:19:00,
2013-01-24 16:24:00,24.5,-1.8,30.37,NW,309,2.0,8.0,31,0.00,,,0.00,53,WeatherCatV1.11B39,2013-01-24 21:24:00,
2013-01-24 16:29:00,24.2,-1.4,30.37,West,275,6.0,10.0,32,0.00,,,0.00,74,WeatherCatV1.11B39,2013-01-24 21:29:00,
2013-01-24 16:34:00,24.5,-1.8,30.37,West,280,7.0,8.0,31,0.00,,,0.00,91,WeatherCatV1.11B39,2013-01-24 21:34:00,
2013-01-24 16:39:00,24.4,-1.8,30.37,WNW,288,7.0,19.0,31,0.00,,,0.00,84,WeatherCatV1.11B39,2013-01-24 21:39:00,
2013-01-24 16:44:00,24.5,-3.9,30.37,West,261,8.0,13.0,28,0.00,,,0.00,69,WeatherCatV1.11B39,2013-01-24 21:44:00,
2013-01-24 16:49:00,24.5,-1.1,30.37,West,272,2.0,5.0,32,0.00,,,0.00,58,WeatherCatV1.11B39,2013-01-24 21:49:00,
2013-01-24 16:54:00,24.2,-2.0,30.37,West,270,7.0,16.0,31,0.00,,,0.00,30,WeatherCatV1.11B39,2013-01-24 21:54:00,
2013-01-24 16:59:00,24.2,-3.4,30.38,NW,312,4.0,17.0,29,0.00,,,0.00,35,WeatherCatV1.11B39,2013-01-24 21:59:00,
2013-01-24 17:04:00,24.2,-1.4,30.38,NNW,332,2.0,7.0,32,0.00,,,0.00,26,WeatherCatV1.11B39,2013-01-24 22:04:00,
2013-01-24 17:09:00,23.9,-1.6,30.38,WNW,287,2.0,7.0,32,0.00,,,0.00,18,WeatherCatV1.11B39,2013-01-24 22:09:00,
2013-01-24 17:14:00,23.8,-3.1,30.39,West,274,7.0,16.0,30,0.00,,,0.00,11,WeatherCatV1.11B39,2013-01-24 22:14:00,
2013-01-24 17:19:00,23.6,-1.9,30.39,WNW,289,2.0,2.0,32,0.00,,,0.00,5,WeatherCatV1.11B39,2013-01-24 22:19:00,
2013-01-24 17:24:00,23.6,-1.2,30.39,NNW,340,1.0,5.0,33,0.00,,,0.00,5,WeatherCatV1.11B39,2013-01-24 22:24:00,
2013-01-24 17:29:00,23.5,-2.0,30.40,NW,318,5.0,9.0,32,0.00,,,0.00,0,WeatherCatV1.11B39,2013-01-24 22:29:00,
2013-01-24 17:34:00,23.5,-2.0,30.40,WNW,284,4.0,7.0,32,0.00,,,0.00,0,WeatherCatV1.11B39,2013-01-24 22:34:00,
2013-01-24 17:39:00,23.5,-2.6,30.40,WNW,285,4.0,6.0,31,0.00,,,0.00,0,WeatherCatV1.11B39,2013-01-24 22:39:00,
2013-01-24 17:44:00,23.3,-2.8,30.41,WNW,289,3.0,8.0,31,0.00,,,0.00,0,WeatherCatV1.11B39,2013-01-24 22:44:00,
2013-01-24 17:49:00,23.2,-1.6,30.41,WNW,298,6.0,10.0,33,0.00,,,0.00,0,WeatherCatV1.11B39,2013-01-24 22:49:00,
2013-01-24 17:54:00,23.2,-2.2,30.41,WNW,289,6.0,7.0,32,0.00,,,0.00,0,WeatherCatV1.11B39,2013-01-24 22:54:00,
2013-01-24 17:59:00,23.2,-1.0,30.41,WNW,298,0.0,0.0,34,0.00,,,0.00,0,WeatherCatV1.11B39,2013-01-24 22:59:00,
2013-01-24 18:04:00,23.2,-1.6,30.41,NW,319,0.0,1.0,33,0.00,,,0.00,0,WeatherCatV1.11B39,2013-01-24 23:04:00,
2013-01-24 18:09:00,23.2,-1.6,30.41,NW,320,0.0,0.0,33,0.00,,,0.00,0,WeatherCatV1.11B39,2013-01-24 23:09:00,
2013-01-24 18:14:00,23.2,-2.2,30.42,NW,326,1.0,5.0,32,0.00,,,0.00,0,WeatherCatV1.11B39,2013-01-24 23:14:00,
2013-01-24 18:19:00,23.0,-1.8,30.42,WNW,301,0.0,5.0,33,0.00,,,0.00,0,WeatherCatV1.11B39,2013-01-24 23:19:00,
2013-01-24 18:24:00,23.0,-0.5,30.42,NNW,332,0.0,0.0,35,0.00,,,0.00,0,WeatherCatV1.11B39,2013-01-24 23:24:00,
2013-01-24 18:29:00,23.0,0.1,30.42,NNW,332,0.0,0.0,36,0.00,,,0.00,0,WeatherCatV1.11B39,2013-01-24 23:29:00,
2013-01-24 18:34:00,23.0,-0.5,30.42,NNW,332,0.0,0.0,35,0.00,,,0.00,0,WeatherCatV1.11B39,2013-01-24 23:34:00,
2013-01-24 18:39:00,22.7,-0.8,30.42,NW,311,0.0,3.0,35,0.00,,,0.00,0,WeatherCatV1.11B39,2013-01-24 23:39:00,
2013-01-24 18:44:00,22.4,-0.5,30.43,WNW,287,1.0,2.0,36,0.00,,,0.00,0,WeatherCatV1.11B39,2013-01-24 23:44:00,
2013-01-24 18:49:00,22.4,-1.1,30.43,WNW,287,0.0,0.0,35,0.00,,,0.00,0,WeatherCatV1.11B39,2013-01-24 23:49:00,
2013-01-24 18:54:00,22.5,-0.4,30.43,WNW,287,0.0,0.0,36,0.00,,,0.00,0,WeatherCatV1.11B39,2013-01-24 23:54:00,
2013-01-24 18:59:00,22.4,-0.5,30.44,WNW,287,0.0,1.0,36,0.00,,,0.00,0,WeatherCatV1.11B39,2013-01-24 23:59:00,
2013-01-24 19:04:00,21.9,-0.3,30.44,WNW,291,3.0,5.0,37,0.00,,,0.00,0,WeatherCatV1.11B39,2013-01-25 00:04:00,
2013-01-24 19:09:00,22.1,-1.3,30.44,West,278,12.0,12.0,35,0.00,,,0.00,0,WeatherCatV1.11B39,2013-01-25 00:09:00,
2013-01-24 19:14:00,22.1,-0.7,30.44,West,260,5.0,6.0,36,0.00,,,0.00,0,WeatherCatV1.11B39,2013-01-25 00:14:00,
2013-01-24 19:19:00,22.2,-0.6,30.44,West,280,2.0,2.0,36,0.00,,,0.00,0,WeatherCatV1.11B39,2013-01-25 00:19:00,
2013-01-24 19:24:00,22.1,-1.3,30.44,WNW,296,0.0,3.0,35,0.00,,,0.00,0,WeatherCatV1.11B39,2013-01-25 00:24:00,
2013-01-24 19:29:00,22.1,-1.3,30.45,WNW,292,2.0,10.0,35,0.00,,,0.00,0,WeatherCatV1.11B39,2013-01-25 00:29:00,
2013-01-24 19:34:00,22.2,-1.8,30.45,North,359,2.0,12.0,34,0.00,,,0.00,0,WeatherCatV1.11B39,2013-01-25 00:34:00,
2013-01-24 19:39:00,21.9,-0.3,30.45,NW,305,4.0,6.0,37,0.00,,,0.00,0,WeatherCatV1.11B39,2013-01-25 00:39:00,
2013-01-24 19:44:00,21.9,-2.1,30.45,WNW,284,0.0,0.0,34,0.00,,,0.00,0,WeatherCatV1.11B39,2013-01-25 00:44:00,
2013-01-24 19:49:00,21.9,-1.5,30.45,WNW,284,0.0,2.0,35,0.00,,,0.00,0,WeatherCatV1.11B39,2013-01-25 00:49:00,
2013-01-24 19:54:00,21.8,-1.0,30.45,WNW,284,0.0,2.0,36,0.00,,,0.00,0,WeatherCatV1.11B39,2013-01-25 00:54:00,
2013-01-24 19:59:00,21.8,-2.2,30.45,NW,309,3.0,7.0,34,0.00,,,0.00,0,WeatherCatV1.11B39,2013-01-25 00:59:00,
2013-01-24 20:04:00,21.6,-0.6,30.45,WNW,282,0.0,5.0,37,0.00,,,0.00,0,WeatherCatV1.11B39,2013-01-25 01:04:00,
2013-01-24 20:09:00,21.4,-0.8,30.45,WNW,282,0.0,0.0,37,0.00,,,0.00,0,WeatherCatV1.11B39,2013-01-25 01:09:00,
2013-01-24 20:14:00,21.3,-0.9,30.44,WNW,295,0.0,6.0,37,0.00,,,0.00,0,WeatherCatV1.11B39,2013-01-25 01:14:00,
2013-01-24 20:19:00,21.3,-0.9,30.44,WNW,302,1.0,5.0,37,0.00,,,0.00,0,WeatherCatV1.11B39,2013-01-25 01:19:00,
2013-01-24 20:24:00,21.4,-0.8,30.44,WNW,296,2.0,3.0,37,0.00,,,0.00,0,WeatherCatV1.11B39,2013-01-25 01:24:00,
2013-01-24 20:29:00,21.4,-0.8,30.44,WNW,301,0.0,2.0,37,0.00,,,0.00,0,WeatherCatV1.11B39,2013-01-25 01:29:00,
2013-01-24 20:34:00,21.3,-0.3,30.44,West,275,0.0,0.0,38,0.00,,,0.00,0,WeatherCatV1.11B39,2013-01-25 01:34:00,
2013-01-24 20:39:00,21.3,-1.4,30.44,WNW,288,0.0,6.0,36,0.00,,,0.00,0,WeatherCatV1.11B39,2013-01-25 01:39:00,
2013-01-24 20:44:00,21.3,-2.6,30.44,WNW,289,5.0,12.0,34,0.00,,,0.00,0,WeatherCatV1.11B39,2013-01-25 01:44:00,
2013-01-24 20:49:00,21.1,-2.2,30.44,WNW,288,0.0,0.0,35,0.00,,,0.00,0,WeatherCatV1.11B39,2013-01-25 01:49:00,
2013-01-24 20:54:00,21.1,-1.6,30.44,WNW,285,0.0,4.0,36,0.00,,,0.00,0,WeatherCatV1.11B39,2013-01-25 01:54:00,
2013-01-24 20:59:00,21.0,-1.7,30.44,NW,305,0.0,2.0,36,0.00,,,0.00,0,WeatherCatV1.11B39,2013-01-25 01:59:00,
2013-01-24 21:04:00,21.0,-2.3,30.44,WNW,287,0.0,0.0,35,0.00,,,0.00,0,WeatherCatV1.11B39,2013-01-25 02:04:00,
2013-01-24 21:09:00,21.1,-2.2,30.44,WNW,288,0.0,0.0,35,0.00,,,0.00,0,WeatherCatV1.11B39,2013-01-25 02:09:00,
2013-01-24 21:14:00,21.0,-2.3,30.43,WNW,288,0.0,0.0,35,0.00,,,0.00,0,WeatherCatV1.11B39,2013-01-25 02:14:00,
2013-01-24 21:19:00,20.6,-2.1,30.43,WNW,288,0.0,0.0,36,0.00,,,0.00,0,WeatherCatV1.11B39,2013-01-25 02:19:00,
2013-01-24 21:24:00,20.6,-1.5,30.43,WNW,288,0.0,0.0,37,0.00,,,0.00,0,WeatherCatV1.11B39,2013-01-25 02:24:00,
2013-01-24 21:29:00,20.8,-3.7,30.44,NNW,339,0.0,0.0,33,0.00,,,0.00,0,WeatherCatV1.11B39,2013-01-25 02:29:00,
2013-01-24 21:34:00,20.8,-3.1,30.44,NNW,339,0.0,0.0,34,0.00,,,0.00,0,WeatherCatV1.11B39,2013-01-25 02:34:00,
2013-01-24 21:39:00,21.0,-2.9,30.44,NNE,18,0.0,0.0,34,0.00,,,0.00,0,WeatherCatV1.11B39,2013-01-25 02:39:00,
2013-01-24 21:44:00,20.8,-3.7,30.44,WNW,284,0.0,0.0,33,0.00,,,0.00,0,WeatherCatV1.11B39,2013-01-25 02:44:00,
2013-01-24 21:49:00,20.8,-3.7,30.44,WNW,282,0.0,0.0,33,0.00,,,0.00,0,WeatherCatV1.11B39,2013-01-25 02:49:00,
2013-01-24 21:54:00,21.0,-3.5,30.44,WNW,282,0.0,0.0,33,0.00,,,0.00,0,WeatherCatV1.11B39,2013-01-25 02:54:00,
2013-01-24 21:59:00,20.6,-3.3,30.44,WNW,282,0.0,0.0,34,0.00,,,0.00,0,WeatherCatV1.11B39,2013-01-25 02:59:00,
2013-01-24 22:04:00,20.5,-4.6,30.44,WNW,284,0.0,0.0,32,0.00,,,0.00,0,WeatherCatV1.11B39,2013-01-25 03:04:00,
2013-01-24 22:09:00,20.6,-5.9,30.44,SSW,209,0.0,0.0,30,0.00,,,0.00,0,WeatherCatV1.11B39,2013-01-25 03:09:00,
2013-01-24 22:14:00,20.5,-2.8,30.44,SSW,209,0.0,0.0,35,0.00,,,0.00,0,WeatherCatV1.11B39,2013-01-25 03:14:00,
2013-01-24 22:19:00,20.2,-2.4,30.44,SSW,209,0.0,0.0,36,0.00,,,0.00,0,WeatherCatV1.11B39,2013-01-25 03:19:00,
2013-01-24 22:24:00,20.0,-5.1,30.44,SSW,209,0.0,0.0,32,0.00,,,0.00,0,WeatherCatV1.11B39,2013-01-25 03:24:00,
2013-01-24 22:29:00,19.7,-4.7,30.44,West,274,0.0,0.0,33,0.00,,,0.00,0,WeatherCatV1.11B39,2013-01-25 03:29:00,
2013-01-24 22:34:00,19.7,-6.0,30.44,NW,312,4.0,11.0,31,0.00,,,0.00,0,WeatherCatV1.11B39,2013-01-25 03:34:00,
2013-01-24 22:39:00,19.5,-5.5,30.44,WNW,291,2.0,2.0,32,0.00,,,0.00,0,WeatherCatV1.11B39,2013-01-25 03:39:00,
2013-01-24 22:44:00,19.4,-5.6,30.44,WNW,291,5.0,7.0,32,0.00,,,0.00,0,WeatherCatV1.11B39,2013-01-25 03:44:00,
2013-01-24 22:49:00,19.7,-99.9,30.44,NW,305,6.0,11.0,-999,0.00,,,0.00,0,WeatherCatV1.11B39,2013-01-25 03:49:00,
2013-01-24 22:54:00,19.5,-4.9,30.44,North,352,0.0,7.0,33,0.00,,,0.00,0,WeatherCatV1.11B39,2013-01-25 03:54:00,
2013-01-24 22:59:00,19.4,-5.6,30.44,WNW,289,3.0,6.0,32,0.00,,,0.00,0,WeatherCatV1.11B39,2013-01-25 03:59:00,
2013-01-24 23:04:00,19.5,-4.9,30.44,NW,305,4.0,6.0,33,0.00,,,0.00,0,WeatherCatV1.11B39,2013-01-25 04:04:00,
2013-01-24 23:09:00,19.5,-4.2,30.44,WNW,299,4.0,5.0,34,0.00,,,0.00,0,WeatherCatV1.11B39,2013-01-25 04:09:00,
2013-01-24 23:14:00,19.5,-4.9,30.44,WNW,298,2.0,7.0,33,0.00,,,0.00,0,WeatherCatV1.11B39,2013-01-25 04:14:00,
2013-01-24 23:19:00,19.4,-5.0,30.44,NW,312,0.0,1.0,33,0.00,,,0.00,0,WeatherCatV1.11B39,2013-01-25 04:19:00,
2013-01-24 23:24:00,19.4,-4.3,30.44,NW,312,0.0,0.0,34,0.00,,,0.00,0,WeatherCatV1.11B39,2013-01-25 04:24:00,
2013-01-24 23:29:00,19.4,-4.3,30.45,West,280,0.0,3.0,34,0.00,,,0.00,0,WeatherCatV1.11B39,2013-01-25 04:29:00,
2013-01-24 23:34:00,19.4,-3.7,30.45,NNE,13,0.0,2.0,35,0.00,,,0.00,0,WeatherCatV1.11B39,2013-01-25 04:34:00,
2013-01-24 23:39:00,19.4,-5.0,30.45,NNW,333,0.0,3.0,33,0.00,,,0.00,0,WeatherCatV1.11B39,2013-01-25 04:39:00,
2013-01-24 23:44:00,19.4,-5.0,30.45,WNW,302,3.0,8.0,33,0.00,,,0.00,0,WeatherCatV1.11B39,2013-01-25 04:44:00,
2013-01-24 23:49:00,19.2,-5.1,30.45,NW,319,7.0,11.0,33,0.00,,,0.00,0,WeatherCatV1.11B39,2013-01-25 04:49:00,
2013-01-24 23:54:00,19.2,-3.9,30.45,WNW,294,6.0,7.0,35,0.00,,,0.00,0,WeatherCatV1.11B39,2013-01-25 04:54:00,
2013-01-24 23:59:00,19.2,-4.5,30.45,NW,304,0.0,0.0,34,0.00,,,0.00,0,WeatherCatV1.11B39,2013-01-25 04:59:00,